Time;durP1;ratioP1;P1;durP2;ratioP2;P2;SDS_P1;SDS_P2;PMS_P1;PMS_P2;Temp;Humidity;BMP_temperature;BMP_pressure;BME280_temperature;BME280_humidity;BME280_pressure;Samples;Min_cycle;Max_cycle;Signal;HPM_P1;HPM_P2
2022/11/02 00:01:19;;;;;;;;;;;;;;;12.35;100.00;98524.84;5101345;28;19987;-64
2022/11/02 00:03:45;;;;;;;;;;;;;;;12.44;100.00;98526.78;5098391;28;19928;-63
2022/11/02 00:06:12;;;;;;;;;;;;;;;12.57;100.00;98528.19;5097779;28;19980;-63
2022/11/02 00:08:38;;;;;;;;;;;;;;;12.59;100.00;98536.78;5099489;28;20027;-64
2022/11/02 00:11:04;;;;;;;;;;;;;;;12.64;100.00;98526.06;5101267;28;19976;-63
2022/11/02 00:13:31;;;;;;;;;;;;;;;12.69;100.00;98541.38;5099351;28;19924;-64
2022/11/02 00:15:57;;;;;;;;;;;;;;;12.47;100.00;98546.91;5097831;28;19931;-64
2022/11/02 00:18:25;;;;;;;;;;;;;;;12.45;100.00;98543.66;5097883;28;20019;-63
2022/11/02 00:20:51;;;;;;;;;;;;;;;12.32;100.00;98536.06;5089233;28;19963;-64
2022/11/02 00:23:18;;;;;;;;;;;;;;;12.37;100.00;98544.16;5089036;28;19972;-63
2022/11/02 00:25:46;;;;;;;;;;;;;;;12.50;100.00;98546.38;5097493;28;19924;-64
2022/11/02 00:28:13;;;;;;;;;;;;;;;12.54;100.00;98547.47;5100206;28;19924;-63
2022/11/02 00:30:39;;;;;;;;;;;;;;;12.62;100.00;98546.97;5103148;28;19928;-63
2022/11/02 00:33:06;;;;;;;;;;;;;;;12.68;100.00;98548.63;5104711;28;19991;-62
2022/11/02 00:35:34;;;;;;;;;;;;;;;12.75;100.00;98565.25;5103695;28;20531;-63
2022/11/02 00:38:01;;;;;;;;;;;;;;;12.79;100.00;98565.53;5101014;28;19925;-64
2022/11/02 00:40:27;;;;;;;;;;;;;;;12.73;100.00;98575.44;5101087;28;19935;-63
2022/11/02 00:42:53;;;;;;;;;;;;;;;12.80;100.00;98570.66;5104442;28;19924;-63
2022/11/02 00:45:21;;;;;;;;;;;;;;;12.82;100.00;98563.13;5103413;28;19959;-64
2022/11/02 00:47:47;;;;;;;;;;;;;;;12.90;100.00;98564.53;5101424;28;19950;-63
2022/11/02 00:50:14;;;;;;;;;;;;;;;12.84;100.00;98570.94;5100826;28;20454;-63
2022/11/02 00:52:41;;;;;;;;;;;;;;;12.86;100.00;98564.25;5100630;28;19924;-63
2022/11/02 00:55:09;;;;;;;;;;;;;;;12.73;100.00;98566.59;5098372;28;19920;-63
2022/11/02 00:57:36;;;;;;;;;;;;;;;12.70;100.00;98565.22;5103026;28;19987;-63
2022/11/02 01:00:04;;;;;;;;;;;;;;;12.73;100.00;98564.72;5100685;28;19960;-63
2022/11/02 01:02:32;;;;;;;;;;;;;;;12.72;100.00;98560.41;5101309;28;19947;-64
2022/11/02 01:04:58;;;;;;;;;;;;;;;12.57;100.00;98563.00;5104128;28;19983;-63
2022/11/02 01:07:24;;;;;;;;;;;;;;;12.58;100.00;98558.47;5104186;28;19967;-64
2022/11/02 01:09:52;;;;;;;;;;;;;;;12.64;100.00;98555.56;5100635;28;19995;-62
2022/11/02 01:12:18;;;;;;;;;;;;;;;12.74;100.00;98555.63;5100798;28;19996;-63
2022/11/02 01:14:45;;;;;;;;;;;;;;;12.78;100.00;98553.22;5103138;28;19980;-63
2022/11/02 01:17:11;;;;;;;;;;;;;;;12.66;100.00;98553.41;5104115;28;20590;-62
2022/11/02 01:19:38;;;;;;;;;;;;;;;12.47;100.00;98544.22;5102251;28;20003;-63
2022/11/02 01:22:04;;;;;;;;;;;;;;;12.38;100.00;98546.56;5100454;28;19924;-63
2022/11/02 01:24:30;;;;;;;;;;;;;;;12.41;100.00;98553.25;5092224;28;19983;-64
2022/11/02 01:26:58;;;;;;;;;;;;;;;12.44;100.00;98552.75;5103803;28;19974;-64
2022/11/02 01:29:24;;;;;;;;;;;;;;;12.45;100.00;98551.69;5103820;28;19988;-64
2022/11/02 01:31:52;;;;;;;;;;;;;;;12.55;100.00;98548.25;5100130;28;20004;-63
2022/11/02 01:34:18;;;;;;;;;;;;;;;12.48;100.00;98539.66;5100136;28;19924;-64
2022/11/02 01:36:45;;;;;;;;;;;;;;;12.49;100.00;98536.72;5102670;28;19959;-63
2022/11/02 01:39:11;;;;;;;;;;;;;;;12.55;100.00;98533.00;5103233;28;19931;-63
2022/11/02 01:41:38;;;;;;;;;;;;;;;12.65;100.00;98538.41;5101804;28;19968;-63
2022/11/02 01:44:19;;;;;;;;;;;;;;;12.72;100.00;98533.59;5100068;28;19924;-64
2022/11/02 01:46:47;;;;;;;;;;;;;;;12.65;100.00;98535.75;5102465;28;20015;-63
2022/11/02 01:49:15;;;;;;;;;;;;;;;12.59;100.00;98547.50;5103364;28;20403;-63
2022/11/02 01:51:43;;;;;;;;;;;;;;;12.69;100.00;98544.84;5100978;28;19924;-64
2022/11/02 01:54:12;;;;;;;;;;;;;;;12.78;100.00;98545.19;5091218;28;19960;-64
2022/11/02 01:56:40;;;;;;;;;;;;;;;12.66;100.00;98544.56;5101341;28;19925;-63
2022/11/02 01:59:09;;;;;;;;;;;;;;;12.75;100.00;98551.06;5103305;28;19991;-63
2022/11/02 02:01:35;;;;;;;;;;;;;;;12.81;100.00;98558.84;5101521;28;19924;-64
2022/11/02 02:04:04;;;;;;;;;;;;;;;12.83;100.00;98553.22;5099270;28;19924;-63
2022/11/02 02:06:31;;;;;;;;;;;;;;;12.83;100.00;98551.38;5099520;28;19960;-63
2022/11/02 02:08:58;;;;;;;;;;;;;;;12.87;100.00;98540.94;5102674;28;19927;-64
2022/11/02 02:11:26;;;;;;;;;;;;;;;12.88;100.00;98543.34;5102719;28;19950;-63
2022/11/02 02:13:53;;;;;;;;;;;;;;;12.91;100.00;98545.50;5090740;28;19929;-63
2022/11/02 02:16:24;;;;;;;;;;;;;;;12.93;100.00;98546.06;5090893;28;19932;-63
2022/11/02 02:18:52;;;;;;;;;;;;;;;12.88;100.00;98545.19;5090620;28;19952;-63
2022/11/02 02:21:25;;;;;;;;;;;;;;;12.88;100.00;98547.88;5090562;28;19931;-64
2022/11/02 02:24:01;;;;;;;;;;;;;;;12.90;100.00;98551.91;5090303;28;19955;-63
2022/11/02 02:26:51;;;;;;;;;;;;;;;12.81;100.00;98553.47;5099552;28;19987;-63
2022/11/02 02:29:21;;;;;;;;;;;;;;;12.89;100.00;98562.91;5102934;28;19935;-63
2022/11/02 02:31:52;;;;;;;;;;;;;;;12.89;100.00;98553.00;5099724;28;19932;-63
2022/11/02 02:34:20;;;;;;;;;;;;;;;12.80;100.00;98559.13;5099441;28;19951;-63
2022/11/02 02:36:50;;;;;;;;;;;;;;;12.69;100.00;98558.25;5101847;28;20588;-63
2022/11/02 02:39:19;;;;;;;;;;;;;;;12.63;100.00;98558.47;5102802;28;19920;-64
2022/11/02 02:41:49;;;;;;;;;;;;;;;12.76;100.00;98564.19;5099665;28;19966;-64
2022/11/02 02:44:20;;;;;;;;;;;;;;;12.84;100.00;98571.72;5099146;28;19988;-63
2022/11/02 02:46:51;;;;;;;;;;;;;;;12.78;100.00;98558.59;5101853;28;19939;-64
2022/11/02 02:49:21;;;;;;;;;;;;;;;12.66;100.00;98566.00;5102222;28;19997;-63
2022/11/02 02:51:48;;;;;;;;;;;;;;;12.76;100.00;98558.81;5099150;28;19929;-62
2022/11/02 02:54:17;;;;;;;;;;;;;;;12.84;100.00;98566.34;5090391;28;19925;-63
2022/11/02 02:56:48;;;;;;;;;;;;;;;12.88;100.00;98567.47;5100792;28;19981;-63
2022/11/02 02:59:16;;;;;;;;;;;;;;;12.86;100.00;98560.75;5101996;28;19924;-63
2022/11/02 03:01:44;;;;;;;;;;;;;;;12.88;100.00;98562.09;5099607;28;19987;-63
2022/11/02 03:04:12;;;;;;;;;;;;;;;12.88;100.00;98567.47;5098562;28;19984;-63
2022/11/02 03:06:41;;;;;;;;;;;;;;;12.74;100.00;98566.34;5100208;28;19971;-64
2022/11/02 03:09:09;;;;;;;;;;;;;;;12.61;100.00;98564.13;5102068;28;20432;-63
2022/11/02 03:11:39;;;;;;;;;;;;;;;12.67;100.00;98565.75;5100376;28;19983;-64
2022/11/02 03:14:07;;;;;;;;;;;;;;;12.68;100.00;98563.88;5098265;28;20035;-63
2022/11/02 03:16:40;;;;;;;;;;;;;;;12.72;100.00;98567.66;5099357;28;19984;-63
2022/11/02 03:19:10;;;;;;;;;;;;;;;12.57;100.00;98560.34;5101728;28;19970;-64
2022/11/02 03:21:40;;;;;;;;;;;;;;;12.68;100.00;98564.69;5100325;28;19988;-63
2022/11/02 03:24:11;;;;;;;;;;;;;;;12.73;100.00;98564.72;5089720;28;19929;-64
2022/11/02 03:26:43;;;;;;;;;;;;;;;12.75;100.00;98573.28;5099615;28;19928;-64
2022/11/02 03:29:12;;;;;;;;;;;;;;;12.79;100.00;98573.56;5101754;28;19935;-63
2022/11/02 03:31:41;;;;;;;;;;;;;;;12.80;100.00;98572.53;5098846;28;20032;-63
2022/11/02 03:34:13;;;;;;;;;;;;;;;12.85;100.00;98572.53;5098312;28;19963;-63
2022/11/02 03:36:46;;;;;;;;;;;;;;;12.88;100.00;98588.09;5099746;28;19991;-63
2022/11/02 03:39:15;;;;;;;;;;;;;;;12.87;100.00;98587.28;5100592;28;20486;-63
2022/11/02 03:41:43;;;;;;;;;;;;;;;12.90;100.00;98602.06;5099306;28;19924;-63
2022/11/02 03:44:12;;;;;;;;;;;;;;;12.88;100.00;98594.25;5098221;28;19931;-64
2022/11/02 03:46:40;;;;;;;;;;;;;;;12.76;100.00;98596.34;5099338;28;19995;-63
2022/11/02 03:49:08;;;;;;;;;;;;;;;12.77;100.00;98592.63;5101485;28;20022;-64
2022/11/02 03:51:36;;;;;;;;;;;;;;;12.85;100.00;98591.28;5100181;28;19960;-63
2022/11/02 03:54:06;;;;;;;;;;;;;;;12.85;100.00;98586.75;5089377;28;20007;-63
2022/11/02 03:56:36;;;;;;;;;;;;;;;12.84;100.00;98584.34;5098550;28;19929;-63
2022/11/02 03:59:02;;;;;;;;;;;;;;;12.73;100.00;98586.16;5101579;28;19983;-63
2022/11/02 04:01:29;;;;;;;;;;;;;;;12.66;100.00;98582.88;5102277;28;19924;-63
2022/11/02 04:03:55;;;;;;;;;;;;;;;12.75;100.00;98589.38;5101561;28;20000;-63
2022/11/02 04:06:24;;;;;;;;;;;;;;;12.85;100.00;98589.44;5101808;28;19984;-63
2022/11/02 04:08:50;;;;;;;;;;;;;;;12.81;100.00;98587.53;5104770;28;19924;-64
2022/11/02 04:16:45;;;;;;;;;;;;;;;12.85;100.00;98592.09;5104087;28;19928;-64
2022/11/02 04:19:29;;;;;;;;;;;;;;;12.79;100.00;98593.16;5105122;28;19966;-64
2022/11/02 04:27:24;;;;;;;;;;;;;;;12.78;100.00;98596.09;5101510;28;19972;-63
2022/11/02 04:29:50;;;;;;;;;;;;;;;12.81;100.00;98599.03;5104585;28;19987;-63
2022/11/02 04:33:31;;;;;;;;;;;;;;;12.61;100.00;98604.31;5105022;28;19980;-63
2022/11/02 04:35:03;;;;;;;;;;;;;;;12.67;100.00;98603.28;5101335;28;19935;-64
2022/11/02 04:40:13;;;;;;;;;;;;;;;12.72;100.00;98611.34;5104841;28;19932;-64
2022/11/02 04:42:45;;;;;;;;;;;;;;;12.83;100.00;98606.84;5102835;28;19963;-63
2022/11/02 04:45:12;;;;;;;;;;;;;;;12.81;100.00;98615.13;5101230;28;19966;-64
2022/11/02 04:47:38;;;;;;;;;;;;;;;12.72;100.00;98608.66;5102675;28;19991;-64
2022/11/02 04:50:05;;;;;;;;;;;;;;;12.58;100.00;98612.06;5104730;28;19928;-63
2022/11/02 04:52:31;;;;;;;;;;;;;;;12.51;100.00;98614.13;5100047;28;19924;-63
2022/11/02 04:54:57;;;;;;;;;;;;;;;12.51;100.00;98614.13;5096824;28;19975;-63
2022/11/02 04:57:23;;;;;;;;;;;;;;;12.61;100.00;98617.72;5104344;28;19924;-63
2022/11/02 04:59:51;;;;;;;;;;;;;;;12.60;100.00;98616.09;5101141;28;19925;-63
2022/11/02 05:02:17;;;;;;;;;;;;;;;12.38;100.00;98608.16;5101002;28;19928;-62
2022/11/02 05:04:44;;;;;;;;;;;;;;;12.47;100.00;98607.72;5102987;28;19924;-63
2022/11/02 05:07:10;;;;;;;;;;;;;;;12.48;100.00;98602.06;5106167;28;19970;-63
2022/11/02 05:09:37;;;;;;;;;;;;;;;12.60;100.00;98605.38;5104644;28;19924;-63
2022/11/02 05:12:04;;;;;;;;;;;;;;;12.59;100.00;98601.09;5100859;28;19929;-63
2022/11/02 05:14:30;;;;;;;;;;;;;;;12.52;100.00;98605.06;5100446;28;19925;-63
2022/11/02 05:16:58;;;;;;;;;;;;;;;12.55;100.00;98594.63;5104213;28;19954;-63
2022/11/02 05:19:24;;;;;;;;;;;;;;;12.54;100.00;98597.56;5104319;28;19924;-63
2022/11/02 05:21:51;;;;;;;;;;;;;;;12.50;100.00;98601.84;5100609;28;19988;-64
2022/11/02 05:24:17;;;;;;;;;;;;;;;12.47;100.00;98599.66;5092078;28;19979;-63
2022/11/02 05:26:43;;;;;;;;;;;;;;;12.55;100.00;98594.63;5102588;28;19987;-63
2022/11/02 05:29:10;;;;;;;;;;;;;;;12.57;100.00;98595.16;5103908;28;19924;-63
2022/11/02 05:31:36;;;;;;;;;;;;;;;12.51;100.00;98606.91;5102343;28;19923;-63
2022/11/02 05:34:04;;;;;;;;;;;;;;;12.44;100.00;98619.72;5100453;28;20139;-63
2022/11/02 05:36:30;;;;;;;;;;;;;;;12.41;100.00;98622.91;5100822;28;19987;-64
2022/11/02 05:38:56;;;;;;;;;;;;;;;12.51;100.00;98627.53;5103700;28;20021;-64
2022/11/02 05:41:23;;;;;;;;;;;;;;;12.53;100.00;98623.56;5103743;28;19932;-63
2022/11/02 05:43:49;;;;;;;;;;;;;;;12.38;100.00;98618.88;5100174;28;19924;-63
2022/11/02 05:46:15;;;;;;;;;;;;;;;12.51;100.00;98623.00;5100192;28;19931;-63
2022/11/02 05:48:42;;;;;;;;;;;;;;;12.59;100.00;98627.88;5101815;28;20015;-63
2022/11/02 05:51:10;;;;;;;;;;;;;;;12.61;100.00;98631.09;5103459;28;19987;-62
2022/11/02 05:53:37;;;;;;;;;;;;;;;12.54;100.00;98627.03;5093489;28;20685;-63
2022/11/02 05:56:04;;;;;;;;;;;;;;;12.42;100.00;98643.28;5099721;28;19924;-63
2022/11/02 05:58:31;;;;;;;;;;;;;;;12.41;100.00;98645.16;5100269;28;19924;-63
2022/11/02 06:00:58;;;;;;;;;;;;;;;12.37;100.00;98651.31;5103324;28;19996;-63
2022/11/02 06:03:25;;;;;;;;;;;;;;;12.35;100.00;98648.06;5103236;28;19992;-63
2022/11/02 06:05:55;;;;;;;;;;;;;;;12.34;100.00;98657.97;5099771;28;20095;-63
2022/11/02 06:08:23;;;;;;;;;;;;;;;12.34;100.00;98657.16;5099684;28;20007;-64
2022/11/02 06:10:49;;;;;;;;;;;;;;;12.36;100.00;98661.19;5102493;28;19928;-64
2022/11/02 06:13:15;;;;;;;;;;;;;;;12.41;100.00;98668.44;5102844;28;19983;-63
2022/11/02 06:15:42;;;;;;;;;;;;;;;12.41;100.00;98663.91;5100425;28;19984;-64
2022/11/02 06:18:08;;;;;;;;;;;;;;;12.40;100.00;98666.84;5099214;28;20534;-63
2022/11/02 06:20:35;;;;;;;;;;;;;;;12.32;100.00;98661.94;5100236;28;20007;-63
2022/11/02 06:23:01;;;;;;;;;;;;;;;12.27;100.00;98667.28;5097621;28;19956;-63
2022/11/02 06:25:29;;;;;;;;;;;;;;;12.15;100.00;98666.63;5098412;28;19924;-63
2022/11/02 06:27:56;;;;;;;;;;;;;;;12.13;100.00;98666.88;5099368;28;19995;-63
2022/11/02 06:30:22;;;;;;;;;;;;;;;12.18;100.00;98674.16;5099120;28;19980;-63
2022/11/02 06:32:49;;;;;;;;;;;;;;;12.28;100.00;98684.97;5101758;28;19996;-64
2022/11/02 06:35:16;;;;;;;;;;;;;;;12.37;100.00;98689.59;5102464;28;19988;-62
2022/11/02 06:37:43;;;;;;;;;;;;;;;12.43;100.00;98693.94;5100403;28;19960;-63
2022/11/02 06:40:10;;;;;;;;;;;;;;;12.48;100.00;98678.97;5098987;28;19954;-62
2022/11/02 06:42:38;;;;;;;;;;;;;;;12.47;100.00;98678.16;5100038;28;19978;-63
2022/11/02 06:45:05;;;;;;;;;;;;;;;12.38;100.00;98683.16;5102282;28;19955;-63
2022/11/02 06:47:32;;;;;;;;;;;;;;;12.37;100.00;98686.13;5101791;28;19995;-63
2022/11/02 06:49:58;;;;;;;;;;;;;;;12.27;100.00;98696.75;5098857;28;19984;-64
2022/11/02 06:52:24;;;;;;;;;;;;;;;12.21;100.00;98695.06;5098811;28;19968;-63
2022/11/02 06:54:51;;;;;;;;;;;;;;;12.23;100.00;98704.47;5093527;28;20007;-63
2022/11/02 06:57:17;;;;;;;;;;;;;;;12.23;100.00;98703.66;5102251;28;19980;-64
2022/11/02 06:59:45;;;;;;;;;;;;;;;12.20;100.00;98709.53;5099807;28;19999;-63
2022/11/02 07:02:11;;;;;;;;;;;;;;;12.11;100.00;98700.34;5098600;28;20397;-63
2022/11/02 07:04:37;;;;;;;;;;;;;;;12.16;100.00;98713.78;5099998;28;20015;-63
2022/11/02 07:07:04;;;;;;;;;;;;;;;12.10;100.00;98720.94;5102051;28;20004;-63
2022/11/02 07:09:30;;;;;;;;;;;;;;;12.13;100.00;98727.69;5101714;28;19987;-63
2022/11/02 07:11:56;;;;;;;;;;;;;;;12.21;100.00;98737.94;5098481;28;19928;-64
2022/11/02 07:14:23;;;;;;;;;;;;;;;12.09;100.00;98745.31;5098436;28;19920;-63
2022/11/02 07:16:51;;;;;;;;;;;;;;;12.01;100.00;98738.50;5101278;28;19992;-62
2022/11/02 07:19:17;;;;;;;;;;;;;;;12.03;100.00;98740.97;5101902;28;19920;-63
2022/11/02 07:21:44;;;;;;;;;;;;;;;12.14;100.00;98750.69;5099198;28;19991;-64
2022/11/02 07:24:10;;;;;;;;;;;;;;;12.04;100.00;98754.06;5089809;28;19935;-63
2022/11/02 07:26:36;;;;;;;;;;;;;;;12.03;100.00;98754.34;5099575;28;19929;-65
2022/11/02 07:29:03;;;;;;;;;;;;;;;12.20;100.00;98755.03;5101851;28;20670;-63
2022/11/02 07:31:31;;;;;;;;;;;;;;;12.19;100.00;98756.13;5101529;28;20030;-63
2022/11/02 07:33:58;;;;;;;;;;;;;;;12.16;100.00;98751.28;5098218;28;19936;-63
2022/11/02 07:36:25;;;;;;;;;;;;;;;12.17;100.00;98758.22;5097898;28;19964;-63
2022/11/02 07:38:51;;;;;;;;;;;;;;;12.15;100.00;98755.00;5101380;28;19924;-63
2022/11/02 07:41:17;;;;;;;;;;;;;;;12.13;100.00;98754.47;5101638;28;19932;-64
2022/11/02 07:43:44;;;;;;;;;;;;;;;12.20;100.00;98763.09;5098833;28;19959;-63
2022/11/02 07:46:10;;;;;;;;;;;;;;;12.16;100.00;98768.13;5098200;28;19956;-63
2022/11/02 07:48:36;;;;;;;;;;;;;;;12.31;100.00;98762.13;5099279;28;20024;-62
2022/11/02 07:51:04;;;;;;;;;;;;;;;12.31;100.00;98759.47;5101742;28;19988;-63
2022/11/02 07:53:31;;;;;;;;;;;;;;;12.12;100.00;98755.50;5092428;28;19925;-63
2022/11/02 07:55:59;;;;;;;;;;;;;;;12.36;100.00;98763.00;5098040;28;19936;-64
2022/11/02 07:58:25;;;;;;;;;;;;;;;12.18;100.00;98758.00;5098248;28;19984;-63
2022/11/02 08:00:53;;;;;;;;;;;;;;;12.26;100.00;98759.38;5101116;28;19952;-63
2022/11/02 08:03:19;;;;;;;;;;;;;;;12.37;100.00;98758.44;5101581;28;19924;-63
2022/11/02 08:05:46;;;;;;;;;;;;;;;12.39;100.00;98761.66;5098612;28;20019;-63
2022/11/02 08:08:14;;;;;;;;;;;;;;;12.40;100.00;98750.72;5098370;28;19937;-64
2022/11/02 08:10:41;;;;;;;;;;;;;;;12.17;100.00;98756.38;5099628;28;19959;-63
2022/11/02 08:13:07;;;;;;;;;;;;;;;12.37;100.00;98755.75;5101645;28;19959;-63
2022/11/02 08:15:34;;;;;;;;;;;;;;;12.38;100.00;98760.03;5100524;28;19935;-63
2022/11/02 08:18:01;;;;;;;;;;;;;;;12.36;100.00;98764.84;5098055;28;19971;-63
2022/11/02 08:20:27;;;;;;;;;;;;;;;12.34;100.00;98758.94;5097948;28;19928;-63
2022/11/02 08:22:54;;;;;;;;;;;;;;;12.37;100.00;98763.81;5097090;28;20040;-63
2022/11/02 08:25:22;;;;;;;;;;;;;;;12.39;100.00;98759.81;5097106;28;19995;-63
2022/11/02 08:27:48;;;;;;;;;;;;;;;12.12;100.00;98760.88;5098571;28;19928;-63
2022/11/02 08:30:14;;;;;;;;;;;;;;;12.15;100.00;98758.50;5097996;28;19991;-63
2022/11/02 08:32:40;;;;;;;;;;;;;;;12.21;100.00;98756.66;5099411;28;19967;-63
2022/11/02 08:35:07;;;;;;;;;;;;;;;12.22;100.00;98755.63;5101198;28;19960;-63
2022/11/02 08:37:33;;;;;;;;;;;;;;;12.26;100.00;98760.19;5100336;28;19920;-63
2022/11/02 08:40:00;;;;;;;;;;;;;;;12.29;100.00;98756.22;5097825;28;20028;-63
2022/11/02 08:42:27;;;;;;;;;;;;;;;12.07;100.00;98760.81;5097605;28;19928;-63
2022/11/02 08:44:54;;;;;;;;;;;;;;;12.06;100.00;98756.50;5089432;28;19988;-63
2022/11/02 08:47:20;;;;;;;;;;;;;;;12.18;100.00;98755.31;5089120;28;19988;-63
2022/11/02 08:49:46;;;;;;;;;;;;;;;12.16;100.00;98753.94;5092438;28;19921;-62
2022/11/02 08:52:13;;;;;;;;;;;;;;;12.35;100.00;98749.84;5092827;28;19928;-63
2022/11/02 08:54:39;;;;;;;;;;;;;;;12.40;100.00;98752.56;5094420;28;19931;-63
2022/11/02 08:57:05;;;;;;;;;;;;;;;12.26;100.00;98754.03;5104748;28;19925;-63
2022/11/02 08:59:33;;;;;;;;;;;;;;;12.34;100.00;98754.41;5104131;28;19979;-63
2022/11/02 09:01:59;;;;;;;;;;;;;;;12.23;100.00;98757.22;5100868;28;19930;-64
2022/11/02 09:04:26;;;;;;;;;;;;;;;12.39;100.00;98756.31;5100607;28;19925;-63
2022/11/02 09:06:52;;;;;;;;;;;;;;;12.34;100.00;98759.75;5104189;28;19969;-65
2022/11/02 09:09:18;;;;;;;;;;;;;;;12.43;100.00;98758.25;5103915;28;19998;-63
2022/11/02 09:11:45;;;;;;;;;;;;;;;12.41;100.00;98749.63;5102062;28;19988;-63
2022/11/02 09:14:11;;;;;;;;;;;;;;;12.36;100.00;98752.28;5100987;28;19984;-63
2022/11/02 09:16:39;;;;;;;;;;;;;;;12.34;100.00;98754.41;5101961;28;19925;-64
2022/11/02 09:19:05;;;;;;;;;;;;;;;12.40;100.00;98744.53;5104261;28;19964;-64
2022/11/02 09:21:31;;;;;;;;;;;;;;;12.37;100.00;98747.72;5102562;28;19924;-64
2022/11/02 09:23:57;;;;;;;;;;;;;;;12.34;100.00;98745.56;5091833;28;19981;-64
2022/11/02 09:26:24;;;;;;;;;;;;;;;12.36;100.00;98751.47;5100733;28;19980;-63
2022/11/02 09:28:50;;;;;;;;;;;;;;;12.42;100.00;98747.75;5103662;28;19938;-64
2022/11/02 09:31:16;;;;;;;;;;;;;;;12.27;100.00;98745.75;5104064;28;19956;-64
2022/11/02 09:33:44;;;;;;;;;;;;;;;12.36;100.00;98754.13;5101449;28;19930;-63
2022/11/02 09:36:11;;;;;;;;;;;;;;;12.35;100.00;98739.13;5100128;28;19992;-64
2022/11/02 09:38:37;;;;;;;;;;;;;;;12.36;100.00;98746.91;5101396;28;19972;-63
2022/11/02 09:41:08;;;;;;;;;;;;;;;12.45;100.00;98733.84;5103958;28;19959;-63
2022/11/02 09:43:40;;;;;;;;;;;;;;;12.49;100.00;98729.63;5102899;28;19959;-63
2022/11/02 09:46:08;;;;;;;;;;;;;;;12.61;100.00;98730.25;5100346;28;19988;-64
2022/11/02 09:48:36;;;;;;;;;;;;;;;12.62;100.00;98731.06;5101050;28;19979;-63
2022/11/02 09:51:07;;;;;;;;;;;;;;;12.77;100.00;98731.19;5103646;28;19987;-63
2022/11/02 09:53:41;;;;;;;;;;;;;;;12.86;100.00;98737.69;5094023;28;19943;-64
2022/11/02 09:56:07;;;;;;;;;;;;;;;12.68;100.00;98743.44;5100105;28;20332;-63
2022/11/02 09:58:36;;;;;;;;;;;;;;;12.43;100.00;98744.03;5100912;28;19946;-64
2022/11/02 10:01:08;;;;;;;;;;;;;;;12.60;100.00;98746.56;5103862;28;20000;-64
2022/11/02 10:03:42;;;;;;;;;;;;;;;12.61;100.00;98743.66;5102699;28;19956;-63
2022/11/02 10:06:12;;;;;;;;;;;;;;;12.91;100.00;98749.25;5100223;28;19983;-63
2022/11/02 10:08:48;;;;;;;;;;;;;;;13.17;100.00;98738.72;5101894;28;19935;-63
2022/11/02 10:11:21;;;;;;;;;;;;;;;13.35;100.00;98744.47;5104012;28;19974;-63
2022/11/02 10:13:50;;;;;;;;;;;;;;;13.46;100.00;98735.38;5100543;28;19938;-63
2022/11/02 10:16:19;;;;;;;;;;;;;;;13.36;100.00;98734.53;5099898;28;19956;-63
2022/11/02 10:18:48;;;;;;;;;;;;;;;12.96;100.00;98735.06;5102233;28;19975;-63
2022/11/02 10:21:19;;;;;;;;;;;;;;;13.12;100.00;98727.97;5103263;28;19924;-63
2022/11/02 10:23:49;;;;;;;;;;;;;;;13.03;100.00;98724.91;5091867;28;20007;-63
2022/11/02 10:26:18;;;;;;;;;;;;;;;13.24;100.00;98732.06;5099497;28;19924;-63
2022/11/02 10:28:47;;;;;;;;;;;;;;;13.29;100.00;98726.72;5101406;28;19925;-63
2022/11/02 10:31:21;;;;;;;;;;;;;;;13.45;100.00;98722.25;5102899;28;19959;-63
2022/11/02 10:33:47;;;;;;;;;;;;;;;13.18;100.00;98717.00;5099686;28;19924;-63
2022/11/02 10:36:20;;;;;;;;;;;;;;;13.35;100.00;98727.53;5098974;28;19960;-62
2022/11/02 10:38:54;;;;;;;;;;;;;;;13.07;100.00;98719.84;5101288;28;19972;-62
2022/11/02 10:41:32;;;;;;;;;;;;;;;12.84;100.00;98724.50;5102478;28;19966;-63
2022/11/02 10:44:11;;;;;;;;;;;;;;;13.04;100.00;98726.53;5098836;28;19924;-62
2022/11/02 10:46:43;;;;;;;;;;;;;;;13.38;100.00;98721.66;5099954;28;19978;-63
2022/11/02 10:49:13;;;;;;;;;;;;;;;13.70;100.00;98716.97;5102424;28;20424;-63
2022/11/02 10:51:40;;;;;;;;;;;;;;;13.30;100.00;98714.13;5100412;28;20002;-63
2022/11/02 10:54:11;;;;;;;;;;;;;;;13.72;100.00;98722.88;5090269;28;19947;-63
2022/11/02 10:56:39;;;;;;;;;;;;;;;13.68;100.00;98724.47;5100047;28;19931;-63
2022/11/02 10:59:10;;;;;;;;;;;;;;;13.94;100.00;98731.53;5102283;28;19924;-63
2022/11/02 11:01:36;;;;;;;;;;;;;;;14.13;100.00;98729.19;5100585;28;19924;-62
2022/11/02 11:04:03;;;;;;;;;;;;;;;14.17;100.00;98722.22;5098619;28;19986;-63
2022/11/02 11:06:31;;;;;;;;;;;;;;;14.14;100.00;98738.03;5098656;28;19924;-63
2022/11/02 11:09:03;;;;;;;;;;;;;;;14.07;100.00;98740.97;5101901;28;19983;-63
2022/11/02 11:11:31;;;;;;;;;;;;;;;13.80;100.00;98741.16;5101410;28;19935;-63
2022/11/02 11:13:59;;;;;;;;;;;;;;;13.75;100.00;98746.50;5098457;28;19951;-64
2022/11/02 11:16:33;;;;;;;;;;;;;;;13.57;100.00;98740.78;5098480;28;19984;-63
2022/11/02 11:19:00;;;;;;;;;;;;;;;13.72;100.00;98733.63;5098471;28;19984;-64
2022/11/02 11:21:35;;;;;;;;;;;;;;;13.68;100.00;98734.41;5098490;28;19927;-62
2022/11/02 11:24:12;;;;;;;;;;;;;;;13.61;100.00;98725.78;5089626;28;20022;-64
2022/11/02 11:26:38;;;;;;;;;;;;;;;13.85;100.00;98729.63;5099580;28;19924;-63
2022/11/02 11:29:20;;;;;;;;;;;;;;;14.00;100.00;98738.53;5101687;28;19963;-64
2022/11/02 11:31:47;;;;;;;;;;;;;;;14.08;100.00;98731.84;5098020;28;19955;-62
2022/11/02 11:34:22;;;;;;;;;;;;;;;13.91;100.00;98731.25;5098374;28;19934;-63
2022/11/02 11:36:48;;;;;;;;;;;;;;;13.91;100.00;98737.44;5100935;28;19928;-63
2022/11/02 11:39:24;;;;;;;;;;;;;;;13.75;100.00;98733.09;5101422;28;19999;-63
2022/11/02 11:41:50;;;;;;;;;;;;;;;13.53;100.00;98732.47;5098450;28;19964;-64
2022/11/02 11:44:17;;;;;;;;;;;;;;;13.71;100.00;98723.94;5097935;28;20050;-64
2022/11/02 11:46:45;;;;;;;;;;;;;;;13.83;100.00;98721.84;5099870;28;19964;-63
2022/11/02 11:49:21;;;;;;;;;;;;;;;13.66;100.00;98715.88;5101741;28;19988;-63
2022/11/02 11:51:49;;;;;;;;;;;;;;;13.58;100.00;98715.59;5098591;28;19993;-63
2022/11/02 11:54:21;;;;;;;;;;;;;;;13.58;100.00;98719.09;5089485;28;19925;-62
2022/11/02 11:56:48;;;;;;;;;;;;;;;13.70;100.00;98708.94;5100364;28;19924;-63
2022/11/02 11:59:19;;;;;;;;;;;;;;;13.39;100.00;98704.50;5101195;28;20014;-63
2022/11/02 12:01:46;;;;;;;;;;;;;;;13.49;100.00;98712.59;5098552;28;20460;-64
2022/11/02 12:04:12;;;;;;;;;;;;;;;13.77;100.00;98719.41;5097602;28;19974;-63
2022/11/02 12:06:41;;;;;;;;;;;;;;;13.88;100.00;98711.13;5099059;28;19925;-64
2022/11/02 12:09:14;;;;;;;;;;;;;;;14.03;100.00;98711.16;5101203;28;19947;-63
2022/11/02 12:11:49;;;;;;;;;;;;;;;14.21;100.00;98709.03;5099021;28;19924;-62
2022/11/02 12:14:26;;;;;;;;;;;;;;;13.87;100.00;98712.19;5097847;28;19960;-65
2022/11/02 12:17:02;;;;;;;;;;;;;;;13.99;100.00;98717.31;5101079;28;20003;-63
2022/11/02 12:19:34;;;;;;;;;;;;;;;13.98;100.00;98716.53;5101131;28;19924;-64
2022/11/02 12:22:03;;;;;;;;;;;;;;;14.12;100.00;98716.00;5097396;28;19969;-63
2022/11/02 12:24:46;;;;;;;;;;;;;;;13.76;100.00;98715.94;5100537;28;19925;-64
2022/11/02 12:27:24;;;;;;;;;;;;;;;14.26;100.00;98707.19;5105097;28;19995;-63
2022/11/02 12:29:57;;;;;;;;;;;;;;;14.47;100.00;98698.06;5101747;28;19988;-64
2022/11/02 12:32:29;;;;;;;;;;;;;;;14.51;100.00;98703.72;5101361;28;19952;-64
2022/11/02 12:35:06;;;;;;;;;;;;;;;14.47;100.00;98702.63;5101367;28;20039;-64
2022/11/02 12:37:39;;;;;;;;;;;;;;;14.38;100.00;98699.69;5101910;28;19954;-63
2022/11/02 12:40:15;;;;;;;;;;;;;;;14.15;100.00;98700.16;5104721;28;19931;-64
2022/11/02 12:42:51;;;;;;;;;;;;;;;13.87;100.00;98703.31;5102682;28;20012;-64
2022/11/02 12:45:21;;;;;;;;;;;;;;;14.23;100.00;98696.97;5101018;28;19934;-64
2022/11/02 12:47:55;;;;;;;;;;;;;;;14.30;100.00;98699.34;5103643;28;19995;-64
2022/11/02 12:50:23;;;;;;;;;;;;;;;14.31;100.00;98692.91;5104750;28;19924;-64
2022/11/02 12:52:56;;;;;;;;;;;;;;;14.35;100.00;98702.09;5097921;28;19930;-64
2022/11/02 12:55:25;;;;;;;;;;;;;;;14.38;100.00;98709.63;5100515;28;19928;-64